sensor_id;sensor_type;location;lat;lon;timestamp;P1;durP1;ratioP1;P2;durP2;ratioP2
18499;SDS011;9379;52.134;11.576;2023-03-22T00:01:09;4.30;;;3.92;;
18499;SDS011;9379;52.134;11.576;2023-03-22T00:03:38;5.57;;;5.07;;
18499;SDS011;9379;52.134;11.576;2023-03-22T00:06:05;4.35;;;3.85;;
18499;SDS011;9379;52.134;11.576;2023-03-22T00:08:32;4.88;;;4.55;;
18499;SDS011;9379;52.134;11.576;2023-03-22T00:11:01;5.45;;;4.95;;
18499;SDS011;9379;52.134;11.576;2023-03-22T00:13:28;5.95;;;5.10;;
18499;SDS011;9379;52.134;11.576;2023-03-22T00:15:55;5.13;;;4.70;;
18499;SDS011;9379;52.134;11.576;2023-03-22T00:18:24;5.88;;;5.22;;
18499;SDS011;9379;52.134;11.576;2023-03-22T00:20:52;5.38;;;4.88;;
18499;SDS011;9379;52.134;11.576;2023-03-22T00:23:20;4.88;;;4.40;;
18499;SDS011;9379;52.134;11.576;2023-03-22T00:25:47;5.68;;;5.10;;
18499;SDS011;9379;52.134;11.576;2023-03-22T00:28:15;6.88;;;6.13;;
18499;SDS011;9379;52.134;11.576;2023-03-22T00:30:47;6.18;;;5.68;;
18499;SDS011;9379;52.134;11.576;2023-03-22T00:33:17;7.45;;;4.15;;
18499;SDS011;9379;52.134;11.576;2023-03-22T00:35:46;6.38;;;4.15;;
18499;SDS011;9379;52.134;11.576;2023-03-22T00:38:14;12.32;;;6.43;;
18499;SDS011;9379;52.134;11.576;2023-03-22T00:40:41;7.00;;;6.03;;
18499;SDS011;9379;52.134;11.576;2023-03-22T00:43:08;23.48;;;7.10;;
18499;SDS011;9379;52.134;11.576;2023-03-22T00:45:36;7.25;;;4.93;;
18499;SDS011;9379;52.134;11.576;2023-03-22T00:48:05;7.70;;;6.82;;
18499;SDS011;9379;52.134;11.576;2023-03-22T00:50:32;6.22;;;5.63;;
18499;SDS011;9379;52.134;11.576;2023-03-22T00:52:59;7.18;;;5.20;;
18499;SDS011;9379;52.134;11.576;2023-03-22T00:55:26;6.40;;;5.82;;
18499;SDS011;9379;52.134;11.576;2023-03-22T00:57:53;7.32;;;6.60;;
18499;SDS011;9379;52.134;11.576;2023-03-22T01:00:20;7.35;;;6.32;;
18499;SDS011;9379;52.134;11.576;2023-03-22T01:02:48;7.38;;;5.50;;
18499;SDS011;9379;52.134;11.576;2023-03-22T01:05:17;7.30;;;6.63;;
18499;SDS011;9379;52.134;11.576;2023-03-22T01:07:46;7.07;;;6.38;;
18499;SDS011;9379;52.134;11.576;2023-03-22T01:10:15;7.78;;;7.00;;
18499;SDS011;9379;52.134;11.576;2023-03-22T01:12:43;6.60;;;5.95;;
18499;SDS011;9379;52.134;11.576;2023-03-22T01:15:10;9.57;;;7.55;;
18499;SDS011;9379;52.134;11.576;2023-03-22T01:17:37;6.57;;;5.68;;
18499;SDS011;9379;52.134;11.576;2023-03-22T01:20:06;6.43;;;5.80;;
18499;SDS011;9379;52.134;11.576;2023-03-22T01:22:35;6.28;;;5.78;;
18499;SDS011;9379;52.134;11.576;2023-03-22T01:25:02;6.68;;;6.03;;
18499;SDS011;9379;52.134;11.576;2023-03-22T01:27:29;10.90;;;7.75;;
18499;SDS011;9379;52.134;11.576;2023-03-22T01:29:56;6.43;;;5.82;;
18499;SDS011;9379;52.134;11.576;2023-03-22T01:32:23;6.60;;;5.40;;
18499;SDS011;9379;52.134;11.576;2023-03-22T01:34:50;8.73;;;6.30;;
18499;SDS011;9379;52.134;11.576;2023-03-22T01:37:19;8.63;;;7.03;;
18499;SDS011;9379;52.134;11.576;2023-03-22T01:39:51;7.15;;;6.45;;
18499;SDS011;9379;52.134;11.576;2023-03-22T01:42:19;6.10;;;5.50;;
18499;SDS011;9379;52.134;11.576;2023-03-22T01:47:56;7.78;;;5.70;;
18499;SDS011;9379;52.134;11.576;2023-03-22T01:50:25;7.13;;;6.40;;
18499;SDS011;9379;52.134;11.576;2023-03-22T01:52:54;8.98;;;7.53;;
18499;SDS011;9379;52.134;11.576;2023-03-22T01:55:23;5.50;;;4.97;;
18499;SDS011;9379;52.134;11.576;2023-03-22T01:57:51;6.72;;;6.07;;
18499;SDS011;9379;52.134;11.576;2023-03-22T02:00:19;7.20;;;6.22;;
18499;SDS011;9379;52.134;11.576;2023-03-22T02:02:47;6.55;;;5.57;;
18499;SDS011;9379;52.134;11.576;2023-03-22T02:05:16;8.98;;;8.05;;
18499;SDS011;9379;52.134;11.576;2023-03-22T02:07:46;8.52;;;7.65;;
18499;SDS011;9379;52.134;11.576;2023-03-22T02:10:18;9.57;;;6.78;;
18499;SDS011;9379;52.134;11.576;2023-03-22T02:12:51;8.60;;;7.75;;
18499;SDS011;9379;52.134;11.576;2023-03-22T02:15:28;12.70;;;8.40;;
18499;SDS011;9379;52.134;11.576;2023-03-22T02:18:04;6.60;;;5.47;;
18499;SDS011;9379;52.134;11.576;2023-03-22T02:20:45;8.68;;;7.90;;
18499;SDS011;9379;52.134;11.576;2023-03-22T02:26:59;12.35;;;7.88;;
18499;SDS011;9379;52.134;11.576;2023-03-22T02:29:40;9.60;;;8.18;;
18499;SDS011;9379;52.134;11.576;2023-03-22T02:32:24;6.25;;;5.35;;
18499;SDS011;9379;52.134;11.576;2023-03-22T02:35:15;7.95;;;6.25;;
18499;SDS011;9379;52.134;11.576;2023-03-22T02:40:46;7.10;;;6.07;;
18499;SDS011;9379;52.134;11.576;2023-03-22T02:43:19;9.05;;;6.40;;
18499;SDS011;9379;52.134;11.576;2023-03-22T02:45:56;9.43;;;7.38;;
18499;SDS011;9379;52.134;11.576;2023-03-22T02:48:31;7.53;;;6.25;;
18499;SDS011;9379;52.134;11.576;2023-03-22T02:51:04;13.85;;;6.20;;
18499;SDS011;9379;52.134;11.576;2023-03-22T02:53:34;8.35;;;6.82;;
18499;SDS011;9379;52.134;11.576;2023-03-22T02:56:09;9.93;;;8.57;;
18499;SDS011;9379;52.134;11.576;2023-03-22T02:58:45;10.25;;;8.82;;
18499;SDS011;9379;52.134;11.576;2023-03-22T03:01:17;10.73;;;8.13;;
18499;SDS011;9379;52.134;11.576;2023-03-22T03:03:48;10.15;;;7.32;;
18499;SDS011;9379;52.134;11.576;2023-03-22T03:06:16;13.85;;;8.63;;
18499;SDS011;9379;52.134;11.576;2023-03-22T03:08:47;11.63;;;8.20;;
18499;SDS011;9379;52.134;11.576;2023-03-22T03:11:17;9.45;;;8.18;;
18499;SDS011;9379;52.134;11.576;2023-03-22T03:13:45;7.85;;;6.97;;
18499;SDS011;9379;52.134;11.576;2023-03-22T03:16:13;10.27;;;8.18;;
18499;SDS011;9379;52.134;11.576;2023-03-22T03:18:46;8.98;;;7.15;;
18499;SDS011;9379;52.134;11.576;2023-03-22T03:21:19;8.25;;;7.35;;
18499;SDS011;9379;52.134;11.576;2023-03-22T03:23:59;14.25;;;10.18;;
18499;SDS011;9379;52.134;11.576;2023-03-22T03:26:34;12.27;;;9.60;;
18499;SDS011;9379;52.134;11.576;2023-03-22T03:29:10;11.68;;;8.73;;
18499;SDS011;9379;52.134;11.576;2023-03-22T03:31:42;11.80;;;9.15;;
18499;SDS011;9379;52.134;11.576;2023-03-22T03:34:15;12.93;;;9.35;;
18499;SDS011;9379;52.134;11.576;2023-03-22T03:36:48;11.38;;;9.50;;
18499;SDS011;9379;52.134;11.576;2023-03-22T03:39:23;10.27;;;8.57;;
18499;SDS011;9379;52.134;11.576;2023-03-22T03:41:54;14.93;;;10.07;;
18499;SDS011;9379;52.134;11.576;2023-03-22T03:44:22;8.70;;;7.35;;
18499;SDS011;9379;52.134;11.576;2023-03-22T03:46:50;11.18;;;8.93;;
18499;SDS011;9379;52.134;11.576;2023-03-22T03:49:18;8.70;;;7.80;;
18499;SDS011;9379;52.134;11.576;2023-03-22T03:51:49;12.98;;;9.10;;
18499;SDS011;9379;52.134;11.576;2023-03-22T03:54:18;13.38;;;9.30;;
18499;SDS011;9379;52.134;11.576;2023-03-22T03:56:45;11.07;;;7.55;;
18499;SDS011;9379;52.134;11.576;2023-03-22T03:59:14;11.43;;;8.98;;
18499;SDS011;9379;52.134;11.576;2023-03-22T04:01:41;10.00;;;8.88;;
18499;SDS011;9379;52.134;11.576;2023-03-22T04:04:14;12.73;;;9.77;;
18499;SDS011;9379;52.134;11.576;2023-03-22T04:06:42;10.65;;;8.20;;
18499;SDS011;9379;52.134;11.576;2023-03-22T04:09:09;10.43;;;8.50;;
18499;SDS011;9379;52.134;11.576;2023-03-22T04:11:36;15.35;;;10.25;;
18499;SDS011;9379;52.134;11.576;2023-03-22T04:14:03;12.00;;;9.43;;
18499;SDS011;9379;52.134;11.576;2023-03-22T04:16:31;9.10;;;7.93;;
18499;SDS011;9379;52.134;11.576;2023-03-22T04:18:58;9.93;;;8.90;;
18499;SDS011;9379;52.134;11.576;2023-03-22T04:21:25;10.02;;;7.75;;
18499;SDS011;9379;52.134;11.576;2023-03-22T04:23:51;9.65;;;7.50;;
18499;SDS011;9379;52.134;11.576;2023-03-22T04:26:19;9.13;;;7.97;;
18499;SDS011;9379;52.134;11.576;2023-03-22T04:28:46;11.57;;;8.93;;
18499;SDS011;9379;52.134;11.576;2023-03-22T04:31:13;11.10;;;8.75;;
18499;SDS011;9379;52.134;11.576;2023-03-22T04:33:41;10.93;;;9.65;;
18499;SDS011;9379;52.134;11.576;2023-03-22T04:36:11;10.52;;;9.43;;
18499;SDS011;9379;52.134;11.576;2023-03-22T04:38:40;9.85;;;8.82;;
18499;SDS011;9379;52.134;11.576;2023-03-22T04:41:07;11.85;;;9.32;;
18499;SDS011;9379;52.134;11.576;2023-03-22T04:43:34;7.93;;;7.13;;
18499;SDS011;9379;52.134;11.576;2023-03-22T04:46:03;9.27;;;7.82;;
18499;SDS011;9379;52.134;11.576;2023-03-22T04:48:34;11.15;;;9.93;;
18499;SDS011;9379;52.134;11.576;2023-03-22T04:51:03;9.45;;;8.45;;
18499;SDS011;9379;52.134;11.576;2023-03-22T04:53:30;8.80;;;6.88;;
18499;SDS011;9379;52.134;11.576;2023-03-22T04:55:57;14.00;;;8.73;;
18499;SDS011;9379;52.134;11.576;2023-03-22T04:58:24;8.10;;;7.28;;
18499;SDS011;9379;52.134;11.576;2023-03-22T05:00:52;9.90;;;7.80;;
18499;SDS011;9379;52.134;11.576;2023-03-22T05:03:19;12.88;;;9.63;;
18499;SDS011;9379;52.134;11.576;2023-03-22T05:05:49;7.93;;;7.10;;
18499;SDS011;9379;52.134;11.576;2023-03-22T05:08:19;7.97;;;6.32;;
18499;SDS011;9379;52.134;11.576;2023-03-22T05:10:49;7.28;;;6.57;;
18499;SDS011;9379;52.134;11.576;2023-03-22T05:13:17;9.73;;;6.60;;
18499;SDS011;9379;52.134;11.576;2023-03-22T05:15:44;9.60;;;8.00;;
18499;SDS011;9379;52.134;11.576;2023-03-22T05:18:13;12.38;;;8.75;;
18499;SDS011;9379;52.134;11.576;2023-03-22T05:20:40;8.63;;;6.82;;
18499;SDS011;9379;52.134;11.576;2023-03-22T05:23:07;7.85;;;6.97;;
18499;SDS011;9379;52.134;11.576;2023-03-22T05:25:36;11.15;;;7.78;;
18499;SDS011;9379;52.134;11.576;2023-03-22T05:28:03;12.77;;;8.18;;
18499;SDS011;9379;52.134;11.576;2023-03-22T05:30:31;10.15;;;9.10;;
18499;SDS011;9379;52.134;11.576;2023-03-22T05:32:58;11.98;;;9.13;;
18499;SDS011;9379;52.134;11.576;2023-03-22T05:35:29;11.25;;;9.65;;
18499;SDS011;9379;52.134;11.576;2023-03-22T05:37:56;13.45;;;10.35;;
18499;SDS011;9379;52.134;11.576;2023-03-22T05:40:24;8.48;;;7.13;;
18499;SDS011;9379;52.134;11.576;2023-03-22T05:42:53;11.27;;;7.78;;
18499;SDS011;9379;52.134;11.576;2023-03-22T05:45:20;12.02;;;9.35;;
18499;SDS011;9379;52.134;11.576;2023-03-22T05:47:48;9.45;;;8.18;;
18499;SDS011;9379;52.134;11.576;2023-03-22T05:50:16;10.30;;;8.43;;
18499;SDS011;9379;52.134;11.576;2023-03-22T05:52:45;11.85;;;8.80;;
18499;SDS011;9379;52.134;11.576;2023-03-22T05:55:12;10.32;;;8.40;;
18499;SDS011;9379;52.134;11.576;2023-03-22T05:57:42;10.98;;;9.35;;
18499;SDS011;9379;52.134;11.576;2023-03-22T06:00:13;8.63;;;7.75;;
18499;SDS011;9379;52.134;11.576;2023-03-22T06:02:43;9.40;;;8.43;;
18499;SDS011;9379;52.134;11.576;2023-03-22T06:05:11;18.02;;;9.02;;
18499;SDS011;9379;52.134;11.576;2023-03-22T06:07:39;11.57;;;9.50;;
18499;SDS011;9379;52.134;11.576;2023-03-22T06:10:08;10.50;;;9.48;;
18499;SDS011;9379;52.134;11.576;2023-03-22T06:12:37;11.65;;;8.18;;
18499;SDS011;9379;52.134;11.576;2023-03-22T06:15:04;12.05;;;9.23;;
18499;SDS011;9379;52.134;11.576;2023-03-22T06:17:33;10.68;;;8.70;;
18499;SDS011;9379;52.134;11.576;2023-03-22T06:20:00;17.65;;;8.75;;
18499;SDS011;9379;52.134;11.576;2023-03-22T06:22:33;11.07;;;9.30;;
18499;SDS011;9379;52.134;11.576;2023-03-22T06:25:00;10.43;;;7.85;;
18499;SDS011;9379;52.134;11.576;2023-03-22T06:27:27;12.50;;;9.80;;
18499;SDS011;9379;52.134;11.576;2023-03-22T06:29:54;9.82;;;8.48;;
18499;SDS011;9379;52.134;11.576;2023-03-22T06:32:21;9.63;;;8.73;;
18499;SDS011;9379;52.134;11.576;2023-03-22T06:34:50;7.68;;;6.88;;
18499;SDS011;9379;52.134;11.576;2023-03-22T06:37:16;7.93;;;7.18;;
18499;SDS011;9379;52.134;11.576;2023-03-22T06:39:43;10.85;;;6.95;;
18499;SDS011;9379;52.134;11.576;2023-03-22T06:42:10;8.00;;;7.20;;
18499;SDS011;9379;52.134;11.576;2023-03-22T06:44:37;10.85;;;8.68;;
18499;SDS011;9379;52.134;11.576;2023-03-22T06:47:06;10.38;;;8.88;;
18499;SDS011;9379;52.134;11.576;2023-03-22T06:49:33;10.45;;;9.35;;
18499;SDS011;9379;52.134;11.576;2023-03-22T06:52:02;9.05;;;7.80;;
18499;SDS011;9379;52.134;11.576;2023-03-22T06:54:29;14.00;;;7.93;;
18499;SDS011;9379;52.134;11.576;2023-03-22T06:56:56;14.65;;;8.98;;
18499;SDS011;9379;52.134;11.576;2023-03-22T06:59:22;9.23;;;8.32;;
18499;SDS011;9379;52.134;11.576;2023-03-22T07:01:49;11.77;;;9.18;;
18499;SDS011;9379;52.134;11.576;2023-03-22T07:04:16;10.55;;;7.75;;
18499;SDS011;9379;52.134;11.576;2023-03-22T07:06:44;7.80;;;6.95;;
18499;SDS011;9379;52.134;11.576;2023-03-22T07:09:12;23.60;;;11.32;;
18499;SDS011;9379;52.134;11.576;2023-03-22T07:11:38;16.38;;;7.90;;
18499;SDS011;9379;52.134;11.576;2023-03-22T07:14:05;10.32;;;8.93;;
18499;SDS011;9379;52.134;11.576;2023-03-22T07:16:32;10.43;;;8.75;;
18499;SDS011;9379;52.134;11.576;2023-03-22T07:18:59;17.48;;;10.68;;
18499;SDS011;9379;52.134;11.576;2023-03-22T07:21:26;12.50;;;10.10;;
18499;SDS011;9379;52.134;11.576;2023-03-22T07:23:53;8.65;;;7.75;;
18499;SDS011;9379;52.134;11.576;2023-03-22T07:26:21;9.57;;;8.52;;
18499;SDS011;9379;52.134;11.576;2023-03-22T07:28:50;11.65;;;10.30;;
18499;SDS011;9379;52.134;11.576;2023-03-22T07:31:17;8.88;;;8.00;;
18499;SDS011;9379;52.134;11.576;2023-03-22T07:33:43;10.20;;;8.48;;
18499;SDS011;9379;52.134;11.576;2023-03-22T07:36:10;9.15;;;7.57;;
18499;SDS011;9379;52.134;11.576;2023-03-22T07:38:38;12.60;;;9.52;;
18499;SDS011;9379;52.134;11.576;2023-03-22T07:41:05;10.52;;;8.45;;
18499;SDS011;9379;52.134;11.576;2023-03-22T07:43:33;12.32;;;9.60;;
18499;SDS011;9379;52.134;11.576;2023-03-22T07:46:00;10.75;;;8.75;;
18499;SDS011;9379;52.134;11.576;2023-03-22T07:48:27;10.25;;;8.88;;
18499;SDS011;9379;52.134;11.576;2023-03-22T07:50:55;12.98;;;7.47;;
18499;SDS011;9379;52.134;11.576;2023-03-22T07:53:22;9.52;;;8.20;;
18499;SDS011;9379;52.134;11.576;2023-03-22T07:55:49;14.75;;;9.85;;
18499;SDS011;9379;52.134;11.576;2023-03-22T07:58:16;13.98;;;9.48;;
18499;SDS011;9379;52.134;11.576;2023-03-22T08:00:44;10.05;;;8.70;;
18499;SDS011;9379;52.134;11.576;2023-03-22T08:03:13;10.25;;;7.63;;
18499;SDS011;9379;52.134;11.576;2023-03-22T08:05:40;9.07;;;7.97;;
18499;SDS011;9379;52.134;11.576;2023-03-22T08:08:08;9.63;;;8.63;;
18499;SDS011;9379;52.134;11.576;2023-03-22T08:10:37;9.60;;;7.00;;
18499;SDS011;9379;52.134;11.576;2023-03-22T08:13:04;7.25;;;6.32;;
18499;SDS011;9379;52.134;11.576;2023-03-22T08:15:31;13.30;;;8.32;;
18499;SDS011;9379;52.134;11.576;2023-03-22T08:17:59;13.88;;;9.20;;
18499;SDS011;9379;52.134;11.576;2023-03-22T08:20:26;10.43;;;8.70;;
18499;SDS011;9379;52.134;11.576;2023-03-22T08:22:53;9.00;;;7.88;;
18499;SDS011;9379;52.134;11.576;2023-03-22T08:25:20;11.02;;;7.97;;
18499;SDS011;9379;52.134;11.576;2023-03-22T08:27:47;13.95;;;10.07;;
18499;SDS011;9379;52.134;11.576;2023-03-22T08:30:14;15.90;;;10.85;;
18499;SDS011;9379;52.134;11.576;2023-03-22T08:32:41;9.00;;;8.00;;
18499;SDS011;9379;52.134;11.576;2023-03-22T08:35:10;9.55;;;8.60;;
18499;SDS011;9379;52.134;11.576;2023-03-22T08:37:37;10.30;;;8.52;;
18499;SDS011;9379;52.134;11.576;2023-03-22T08:40:06;10.32;;;9.13;;
18499;SDS011;9379;52.134;11.576;2023-03-22T08:42:34;9.00;;;7.28;;
18499;SDS011;9379;52.134;11.576;2023-03-22T08:45:01;11.27;;;9.63;;
18499;SDS011;9379;52.134;11.576;2023-03-22T08:47:28;10.80;;;8.50;;
18499;SDS011;9379;52.134;11.576;2023-03-22T08:49:55;10.00;;;8.00;;
18499;SDS011;9379;52.134;11.576;2023-03-22T08:52:23;14.70;;;8.57;;
18499;SDS011;9379;52.134;11.576;2023-03-22T08:54:50;8.88;;;8.05;;
18499;SDS011;9379;52.134;11.576;2023-03-22T08:57:18;8.65;;;7.10;;
18499;SDS011;9379;52.134;11.576;2023-03-22T08:59:46;10.98;;;8.90;;
18499;SDS011;9379;52.134;11.576;2023-03-22T09:02:13;12.55;;;8.13;;
18499;SDS011;9379;52.134;11.576;2023-03-22T09:04:40;11.20;;;8.82;;
18499;SDS011;9379;52.134;11.576;2023-03-22T09:07:07;9.45;;;7.22;;
18499;SDS011;9379;52.134;11.576;2023-03-22T09:09:38;13.35;;;7.40;;
18499;SDS011;9379;52.134;11.576;2023-03-22T09:12:05;12.43;;;8.15;;
18499;SDS011;9379;52.134;11.576;2023-03-22T09:14:32;10.55;;;8.50;;
18499;SDS011;9379;52.134;11.576;2023-03-22T09:16:59;9.73;;;8.40;;
18499;SDS011;9379;52.134;11.576;2023-03-22T09:19:26;13.13;;;8.48;;
18499;SDS011;9379;52.134;11.576;2023-03-22T09:21:53;10.30;;;7.32;;
18499;SDS011;9379;52.134;11.576;2023-03-22T09:24:20;11.95;;;7.47;;
18499;SDS011;9379;52.134;11.576;2023-03-22T09:26:48;10.80;;;6.82;;
18499;SDS011;9379;52.134;11.576;2023-03-22T09:29:15;11.85;;;9.10;;
18499;SDS011;9379;52.134;11.576;2023-03-22T09:31:43;10.23;;;8.45;;
18499;SDS011;9379;52.134;11.576;2023-03-22T09:34:13;11.27;;;8.48;;
18499;SDS011;9379;52.134;11.576;2023-03-22T09:36:43;9.93;;;8.07;;
18499;SDS011;9379;52.134;11.576;2023-03-22T09:39:10;10.77;;;7.43;;
18499;SDS011;9379;52.134;11.576;2023-03-22T09:41:37;10.75;;;8.07;;
18499;SDS011;9379;52.134;11.576;2023-03-22T09:44:11;9.20;;;6.45;;
18499;SDS011;9379;52.134;11.576;2023-03-22T09:46:42;6.80;;;6.13;;
18499;SDS011;9379;52.134;11.576;2023-03-22T09:49:14;6.80;;;6.20;;
18499;SDS011;9379;52.134;11.576;2023-03-22T09:51:43;6.05;;;4.95;;
18499;SDS011;9379;52.134;11.576;2023-03-22T09:54:12;8.52;;;7.72;;
18499;SDS011;9379;52.134;11.576;2023-03-22T09:56:43;9.20;;;8.30;;
18499;SDS011;9379;52.134;11.576;2023-03-22T09:59:16;9.07;;;6.88;;
18499;SDS011;9379;52.134;11.576;2023-03-22T10:01:49;8.98;;;6.13;;
18499;SDS011;9379;52.134;11.576;2023-03-22T10:04:29;7.47;;;5.95;;
18499;SDS011;9379;52.134;11.576;2023-03-22T10:07:08;7.05;;;5.68;;
18499;SDS011;9379;52.134;11.576;2023-03-22T10:09:44;8.75;;;6.60;;
18499;SDS011;9379;52.134;11.576;2023-03-22T10:12:22;6.72;;;5.15;;
18499;SDS011;9379;52.134;11.576;2023-03-22T10:14:58;9.07;;;5.15;;
18499;SDS011;9379;52.134;11.576;2023-03-22T10:17:29;7.47;;;5.43;;
18499;SDS011;9379;52.134;11.576;2023-03-22T10:19:57;5.53;;;4.75;;
18499;SDS011;9379;52.134;11.576;2023-03-22T10:22:31;69.35;;;8.82;;
18499;SDS011;9379;52.134;11.576;2023-03-22T10:25:01;8.48;;;6.18;;
18499;SDS011;9379;52.134;11.576;2023-03-22T10:27:30;6.43;;;5.75;;
18499;SDS011;9379;52.134;11.576;2023-03-22T10:30:00;6.95;;;6.07;;
18499;SDS011;9379;52.134;11.576;2023-03-22T10:32:33;5.60;;;4.95;;
18499;SDS011;9379;52.134;11.576;2023-03-22T10:35:05;6.10;;;5.45;;
18499;SDS011;9379;52.134;11.576;2023-03-22T10:37:33;5.40;;;4.90;;
18499;SDS011;9379;52.134;11.576;2023-03-22T10:40:02;5.43;;;3.85;;
18499;SDS011;9379;52.134;11.576;2023-03-22T10:42:31;12.30;;;6.40;;
18499;SDS011;9379;52.134;11.576;2023-03-22T10:45:04;6.35;;;5.45;;
18499;SDS011;9379;52.134;11.576;2023-03-22T10:47:34;5.95;;;4.63;;
18499;SDS011;9379;52.134;11.576;2023-03-22T10:50:06;5.50;;;4.32;;
18499;SDS011;9379;52.134;11.576;2023-03-22T10:52:39;5.50;;;4.88;;
18499;SDS011;9379;52.134;11.576;2023-03-22T10:55:09;5.82;;;3.38;;
18499;SDS011;9379;52.134;11.576;2023-03-22T10:57:38;6.75;;;4.65;;
18499;SDS011;9379;52.134;11.576;2023-03-22T11:00:09;5.63;;;3.53;;
18499;SDS011;9379;52.134;11.576;2023-03-22T11:02:43;6.35;;;4.07;;
18499;SDS011;9379;52.134;11.576;2023-03-22T11:05:18;4.00;;;3.63;;
18499;SDS011;9379;52.134;11.576;2023-03-22T11:07:47;4.20;;;3.25;;
18499;SDS011;9379;52.134;11.576;2023-03-22T11:10:18;5.47;;;4.47;;
18499;SDS011;9379;52.134;11.576;2023-03-22T11:12:48;4.55;;;3.25;;
18499;SDS011;9379;52.134;11.576;2023-03-22T11:15:19;6.10;;;3.20;;
18499;SDS011;9379;52.134;11.576;2023-03-22T11:17:50;3.50;;;3.20;;
18499;SDS011;9379;52.134;11.576;2023-03-22T11:20:20;4.60;;;3.78;;
18499;SDS011;9379;52.134;11.576;2023-03-22T11:22:47;4.68;;;3.13;;
18499;SDS011;9379;52.134;11.576;2023-03-22T11:25:17;3.25;;;3.00;;
18499;SDS011;9379;52.134;11.576;2023-03-22T11:27:49;3.28;;;2.83;;
18499;SDS011;9379;52.134;11.576;2023-03-22T11:30:18;6.03;;;2.92;;
18499;SDS011;9379;52.134;11.576;2023-03-22T11:32:53;7.70;;;3.25;;
18499;SDS011;9379;52.134;11.576;2023-03-22T11:35:28;2.58;;;2.38;;
18499;SDS011;9379;52.134;11.576;2023-03-22T11:37:55;3.25;;;2.95;;
18499;SDS011;9379;52.134;11.576;2023-03-22T11:40:24;2.90;;;2.70;;
18499;SDS011;9379;52.134;11.576;2023-03-22T11:42:53;2.08;;;1.98;;
18499;SDS011;9379;52.134;11.576;2023-03-22T11:45:25;2.70;;;2.50;;
18499;SDS011;9379;52.134;11.576;2023-03-22T11:47:55;5.03;;;3.17;;
18499;SDS011;9379;52.134;11.576;2023-03-22T11:50:28;2.85;;;2.65;;
18499;SDS011;9379;52.134;11.576;2023-03-22T11:52:57;3.33;;;3.08;;
18499;SDS011;9379;52.134;11.576;2023-03-22T11:55:28;5.30;;;2.13;;
18499;SDS011;9379;52.134;11.576;2023-03-22T11:57:56;2.35;;;2.15;;
18499;SDS011;9379;52.134;11.576;2023-03-22T12:00:25;6.28;;;3.22;;
18499;SDS011;9379;52.134;11.576;2023-03-22T12:02:56;4.82;;;2.83;;
18499;SDS011;9379;52.134;11.576;2023-03-22T12:05:27;4.22;;;2.72;;
18499;SDS011;9379;52.134;11.576;2023-03-22T12:07:57;5.38;;;2.65;;
18499;SDS011;9379;52.134;11.576;2023-03-22T12:10:27;5.00;;;2.60;;
18499;SDS011;9379;52.134;11.576;2023-03-22T12:12:57;4.10;;;3.28;;
18499;SDS011;9379;52.134;11.576;2023-03-22T12:15:28;4.00;;;2.85;;
18499;SDS011;9379;52.134;11.576;2023-03-22T12:17:57;2.67;;;2.47;;
18499;SDS011;9379;52.134;11.576;2023-03-22T12:20:30;3.17;;;2.78;;
18499;SDS011;9379;52.134;11.576;2023-03-22T12:23:07;2.50;;;2.17;;
18499;SDS011;9379;52.134;11.576;2023-03-22T12:25:39;3.60;;;2.03;;
18499;SDS011;9379;52.134;11.576;2023-03-22T12:28:11;5.00;;;2.78;;
18499;SDS011;9379;52.134;11.576;2023-03-22T12:30:44;3.17;;;2.35;;
18499;SDS011;9379;52.134;11.576;2023-03-22T12:33:15;2.67;;;2.35;;
18499;SDS011;9379;52.134;11.576;2023-03-22T12:35:45;6.72;;;2.78;;
18499;SDS011;9379;52.134;11.576;2023-03-22T12:38:20;4.93;;;2.55;;
18499;SDS011;9379;52.134;11.576;2023-03-22T12:40:52;3.20;;;2.63;;
18499;SDS011;9379;52.134;11.576;2023-03-22T12:43:26;3.58;;;3.00;;
18499;SDS011;9379;52.134;11.576;2023-03-22T12:46:09;3.78;;;2.95;;
18499;SDS011;9379;52.134;11.576;2023-03-22T12:48:44;2.85;;;2.65;;
18499;SDS011;9379;52.134;11.576;2023-03-22T12:51:14;3.83;;;2.22;;
18499;SDS011;9379;52.134;11.576;2023-03-22T12:53:42;4.30;;;2.95;;
18499;SDS011;9379;52.134;11.576;2023-03-22T12:56:11;4.75;;;3.78;;
18499;SDS011;9379;52.134;11.576;2023-03-22T12:58:41;5.93;;;3.67;;
18499;SDS011;9379;52.134;11.576;2023-03-22T13:01:18;7.50;;;3.05;;
18499;SDS011;9379;52.134;11.576;2023-03-22T13:03:48;2.28;;;2.08;;
18499;SDS011;9379;52.134;11.576;2023-03-22T13:06:31;7.13;;;2.83;;
18499;SDS011;9379;52.134;11.576;2023-03-22T13:09:20;3.55;;;3.25;;
18499;SDS011;9379;52.134;11.576;2023-03-22T13:14:59;5.28;;;2.13;;
18499;SDS011;9379;52.134;11.576;2023-03-22T13:17:43;6.32;;;2.53;;
18499;SDS011;9379;52.134;11.576;2023-03-22T13:20:24;3.60;;;2.58;;
18499;SDS011;9379;52.134;11.576;2023-03-22T13:23:03;4.32;;;3.25;;
18499;SDS011;9379;52.134;11.576;2023-03-22T13:25:37;5.00;;;3.53;;
18499;SDS011;9379;52.134;11.576;2023-03-22T13:28:24;2.20;;;2.00;;
18499;SDS011;9379;52.134;11.576;2023-03-22T13:30:53;2.97;;;2.38;;
18499;SDS011;9379;52.134;11.576;2023-03-22T13:33:24;2.45;;;2.25;;
18499;SDS011;9379;52.134;11.576;2023-03-22T13:35:54;3.30;;;3.00;;
18499;SDS011;9379;52.134;11.576;2023-03-22T13:38:24;5.80;;;2.95;;
18499;SDS011;9379;52.134;11.576;2023-03-22T13:40:58;3.85;;;2.67;;
18499;SDS011;9379;52.134;11.576;2023-03-22T13:43:29;3.38;;;2.40;;
18499;SDS011;9379;52.134;11.576;2023-03-22T13:46:08;4.30;;;2.58;;
18499;SDS011;9379;52.134;11.576;2023-03-22T13:48:52;3.20;;;2.90;;
18499;SDS011;9379;52.134;11.576;2023-03-22T13:51:25;2.90;;;2.53;;
18499;SDS011;9379;52.134;11.576;2023-03-22T13:53:57;2.67;;;2.47;;
18499;SDS011;9379;52.134;11.576;2023-03-22T13:56:30;2.95;;;2.65;;
18499;SDS011;9379;52.134;11.576;2023-03-22T13:59:00;5.45;;;3.17;;
18499;SDS011;9379;52.134;11.576;2023-03-22T14:01:29;2.53;;;2.10;;
18499;SDS011;9379;52.134;11.576;2023-03-22T14:04:03;3.58;;;3.00;;
18499;SDS011;9379;52.134;11.576;2023-03-22T14:06:36;2.65;;;2.45;;
18499;SDS011;9379;52.134;11.576;2023-03-22T14:09:13;6.25;;;2.95;;
18499;SDS011;9379;52.134;11.576;2023-03-22T14:11:51;4.45;;;3.33;;
18499;SDS011;9379;52.134;11.576;2023-03-22T14:14:21;2.97;;;2.70;;
18499;SDS011;9379;52.134;11.576;2023-03-22T14:16:57;3.72;;;3.15;;
18499;SDS011;9379;52.134;11.576;2023-03-22T14:19:31;3.00;;;2.13;;
18499;SDS011;9379;52.134;11.576;2023-03-22T14:22:01;6.28;;;3.13;;
18499;SDS011;9379;52.134;11.576;2023-03-22T14:24:32;3.35;;;2.30;;
18499;SDS011;9379;52.134;11.576;2023-03-22T14:27:01;4.88;;;3.05;;
18499;SDS011;9379;52.134;11.576;2023-03-22T14:29:39;4.05;;;2.75;;
18499;SDS011;9379;52.134;11.576;2023-03-22T14:32:11;4.45;;;2.60;;
18499;SDS011;9379;52.134;11.576;2023-03-22T14:34:43;4.40;;;2.28;;
18499;SDS011;9379;52.134;11.576;2023-03-22T14:37:12;4.07;;;2.70;;
18499;SDS011;9379;52.134;11.576;2023-03-22T14:39:42;1.77;;;1.67;;
18499;SDS011;9379;52.134;11.576;2023-03-22T14:42:14;2.92;;;2.25;;
18499;SDS011;9379;52.134;11.576;2023-03-22T14:44:49;3.95;;;2.47;;
18499;SDS011;9379;52.134;11.576;2023-03-22T14:47:18;2.28;;;2.08;;
18499;SDS011;9379;52.134;11.576;2023-03-22T14:49:49;3.75;;;2.28;;
18499;SDS011;9379;52.134;11.576;2023-03-22T14:52:20;3.17;;;2.90;;
18499;SDS011;9379;52.134;11.576;2023-03-22T14:54:51;3.10;;;2.63;;
18499;SDS011;9379;52.134;11.576;2023-03-22T14:57:23;3.03;;;2.83;;
18499;SDS011;9379;52.134;11.576;2023-03-22T14:59:52;2.65;;;2.45;;
18499;SDS011;9379;52.134;11.576;2023-03-22T15:02:23;3.35;;;2.15;;
18499;SDS011;9379;52.134;11.576;2023-03-22T15:04:58;3.45;;;2.65;;
18499;SDS011;9379;52.134;11.576;2023-03-22T15:07:25;3.50;;;2.58;;
18499;SDS011;9379;52.134;11.576;2023-03-22T15:09:52;6.45;;;2.60;;
18499;SDS011;9379;52.134;11.576;2023-03-22T15:12:35;2.30;;;2.00;;